Date,TemperatureHighF,TemperatureAvgF,TemperatureLowF,DewpointHighF,DewpointAvgF,DewpointLowF,HumidityHigh,HumidityAvg,HumidityLow,PressureMaxIn,PressureMinIn,WindSpeedMaxMPH,WindSpeedAvgMPH,GustSpeedMaxMPH,PrecipitationSumIn
2013-5-1,75.1,65.8,56.4,36.0,28.3,20.0,34,25,17,30.07,29.82,9,4,14,0.00
2013-5-2,85.7,72.2,63.0,45.0,29.6,17.0,28,21,15,30.13,30.07,10,3,14,0.00
2013-5-3,84.3,71.6,64.2,48.0,26.5,15.0,30,19,14,30.07,29.79,5,1,6,0.00
2013-5-4,80.6,65.7,45.1,54.0,39.0,21.0,96,43,17,29.78,29.52,33,6,49,0.00
2013-5-5,53.5,49.3,45.5,48.0,46.4,44.0,97,90,80,29.82,29.51,38,17,56,0.00
2013-5-6,57.6,51.8,47.2,50.0,47.5,46.0,96,86,71,29.96,29.81,19,8,24,0.00
2013-5-7,61.9,53.4,49.1,53.0,48.1,41.0,93,83,68,30.04,29.95,14,4,17,0.00
2013-5-8,58.7,50.8,45.3,54.0,47.4,44.0,97,88,75,30.14,30.03,5,2,8,0.00
2013-5-9,63.4,50.3,44.6,56.0,47.5,43.0,98,90,67,30.18,30.10,5,2,11,0.00
2013-5-10,75.8,59.0,44.7,62.0,50.5,44.0,98,76,52,30.19,30.12,8,2,12,0.00
2013-5-11,84.5,72.9,60.7,58.0,43.8,31.0,64,37,18,30.14,30.03,5,1,9,0.00
2013-5-12,80.0,67.7,59.4,60.0,42.4,21.0,60,41,20,30.11,30.02,5,2,9,0.00
2013-5-13,76.3,62.2,53.2,57.0,44.2,21.0,75,54,22,30.07,29.95,6,2,13,0.00
2013-5-14,62.6,52.4,43.6,52.0,46.2,42.0,97,80,61,30.04,29.90,13,3,16,0.00
2013-5-15,62.0,49.0,42.1,49.0,44.9,40.0,97,87,58,30.10,30.02,13,5,18,0.00
2013-5-16,63.0,51.4,46.6,57.0,49.4,46.0,99,93,75,30.05,29.99,10,4,16,0.00
2013-5-17,61.3,49.7,43.6,52.0,45.5,42.0,98,86,59,30.09,29.97,8,4,16,0.00
2013-5-18,65.1,52.3,44.0,53.0,47.2,42.0,98,84,54,30.15,30.08,10,3,13,0.00
2013-5-19,76.7,61.2,47.1,54.0,40.9,28.0,81,50,28,30.13,30.00,5,1,9,0.00
2013-5-20,84.4,67.3,58.0,47.0,36.7,20.0,50,33,21,30.00,29.91,8,2,13,0.00
2013-5-21,61.5,51.9,40.8,49.0,40.6,23.0,88,68,24,29.98,29.88,15,6,23,0.00
2013-5-22,60.5,46.3,37.4,44.0,36.9,29.0,94,72,44,30.01,29.94,17,3,21,0.00
2013-5-23,58.1,46.3,39.3,46.0,40.7,35.0,96,81,63,30.03,29.93,15,4,23,0.00
2013-5-24,57.4,47.9,41.1,47.0,40.8,33.0,96,77,59,30.02,29.98,15,3,18,0.00
2013-5-25,54.2,46.3,41.8,48.0,44.2,41.0,98,92,75,30.09,29.98,13,4,23,0.00
2013-5-26,62.2,51.6,45.6,57.0,49.8,45.0,99,94,74,30.14,30.07,9,5,19,0.01
2013-5-27,56.1,50.5,46.4,54.0,50.0,46.0,99,98,89,30.14,30.01,10,4,16,0.11
2013-5-28,59.7,52.9,46.5,58.0,51.8,45.0,100,96,83,30.01,29.94,7,3,13,0.05
2013-5-29,58.6,51.2,44.6,55.0,49.3,43.0,99,93,78,29.98,29.94,11,4,16,0.00
2013-5-30,67.7,53.2,43.3,53.0,44.8,38.0,97,75,51,30.02,29.94,7,2,12,0.00
2013-5-31,83.3,67.2,52.6,53.0,42.4,32.0,64,43,26,30.02,29.92,5,1,10,0.00